Fortuna, Brazil
Current Conditions -  °F | °C
As of 2:00 PM on Saturday 20 Dec 2014 (Local Time) from SBTE Reporting Station
Broken Clouds Broken Clouds  
Wind Chill: 91°   Ceiling: 10000
Heat Index: 94°   Visibility: 6mi
Dew Point: 66°   Wind: 5mph
Humidity: 43%   Direction: 300°WNW
Pressure: 29.8"   Gusts: NA
Location:  5.73°S, 44.16°W
Report Text: SBTE 201700Z 30004KT 9999 SCT040 BKN100 33/19 Q1009
Loading
Personal Weather Stations






























Interactive Weather Map New forecast layout! Learn more

10-Day Weather Forecast

Advertisements
Track Severe Weather on mobile